Time;durP1;ratioP1;P1;durP2;ratioP2;P2;SDS_P1;SDS_P2;PMS_P1;PMS_P2;Temp;Humidity;BMP_temperature;BMP_pressure;BME280_temperature;BME280_humidity;BME280_pressure;Samples;Min_cycle;Max_cycle;Signal;HPM_P1;HPM_P2
2021/08/24 00:00:23;;;;;;;4.65;2.10;;;14.90;84.40;;;;;;5073010;28;20385;-83
2021/08/24 00:02:49;;;;;;;4.70;1.90;;;14.90;84.60;;;;;;5091268;28;20378;-83
2021/08/24 00:05:22;;;;;;;5.20;1.73;;;14.80;84.40;;;;;;5072990;28;20377;-84
2021/08/24 00:07:47;;;;;;;4.90;2.10;;;14.80;84.60;;;;;;5091072;28;20452;-83
2021/08/24 00:10:13;;;;;;;4.53;2.00;;;14.80;84.70;;;;;;5091040;28;20913;-83
2021/08/24 00:12:38;;;;;;;3.70;1.80;;;14.80;84.50;;;;;;5072977;28;20393;-85
2021/08/24 00:15:06;;;;;;;4.47;1.93;;;14.80;84.80;;;;;;5089557;28;20405;-83
2021/08/24 00:17:32;;;;;;;4.00;1.80;;;14.80;84.80;;;;;;5081094;28;20401;-83
2021/08/24 00:19:57;;;;;;;6.57;1.80;;;14.70;84.70;;;;;;5090946;28;20381;-82
2021/08/24 00:22:23;;;;;;;4.20;2.07;;;14.70;84.80;;;;;;5090812;28;20380;-82
2021/08/24 00:24:48;;;;;;;3.53;2.10;;;14.70;84.80;;;;;;5090952;28;20869;-83
2021/08/24 00:27:14;;;;;;;2.67;1.95;;;14.70;84.80;;;;;;5072819;28;20820;-83
2021/08/24 00:29:39;;;;;;;3.80;1.80;;;14.60;84.80;;;;;;5090808;28;20386;-83
2021/08/24 00:32:05;;;;;;;4.30;2.03;;;14.60;85.20;;;;;;5085162;28;20479;-83
2021/08/24 00:34:31;;;;;;;3.80;1.77;;;14.60;85.30;;;;;;5090749;28;20960;-83
2021/08/24 00:36:56;;;;;;;3.22;1.70;;;14.60;85.20;;;;;;5090902;28;20703;-83
2021/08/24 00:39:22;;;;;;;4.73;1.90;;;14.60;84.90;;;;;;5089839;28;20863;-83
2021/08/24 00:41:47;;;;;;;3.83;1.60;;;14.60;84.90;;;;;;5094439;28;20449;-84
2021/08/24 00:44:13;;;;;;;3.13;1.70;;;14.60;84.90;;;;;;5093135;28;20482;-83
2021/08/24 00:46:49;;;;;;;5.73;1.97;;;14.60;84.60;;;;;;5094244;28;20803;-83
2021/08/24 00:49:18;;;;;;;6.90;1.83;;;14.50;84.80;;;;;;5094244;28;20390;-83
2021/08/24 00:51:48;;;;;;;3.05;1.73;;;14.50;84.90;;;;;;5092971;28;20406;-83
2021/08/24 00:54:16;;;;;;;4.88;2.00;;;14.50;84.80;;;;;;5094016;28;20443;-83
2021/08/24 00:56:46;;;;;;;6.50;1.90;;;14.50;84.80;;;;;;5088276;28;20482;-84
2021/08/24 00:59:12;;;;;;;4.50;2.47;;;14.40;84.90;;;;;;5094058;28;20381;-83
2021/08/24 01:01:37;;;;;;;3.57;1.80;;;14.40;84.90;;;;;;5094030;28;20382;-83
2021/08/24 01:04:03;;;;;;;3.17;1.73;;;14.40;85.00;;;;;;5092846;28;20389;-82
2021/08/24 01:06:37;;;;;;;2.42;1.77;;;14.30;85.20;;;;;;5093868;28;20755;-83
2021/08/24 01:09:17;;;;;;;2.97;1.70;;;14.30;85.10;;;;;;5092647;28;20563;-82
2021/08/24 01:12:10;;;;;;;3.15;1.73;;;14.30;85.10;;;;;;5093884;28;20378;-82
2021/08/24 01:15:00;;;;;;;3.60;1.75;;;14.30;85.10;;;;;;5093583;28;20481;-82
2021/08/24 01:17:40;;;;;;;7.20;1.73;;;14.20;85.20;;;;;;5092819;28;20409;-82
2021/08/24 01:20:26;;;;;;;2.83;1.77;;;14.20;85.20;;;;;;5092586;28;20390;-82
2021/08/24 01:23:30;;;;;;;3.95;1.98;;;14.10;85.10;;;;;;5093584;28;20406;-82
2021/08/24 01:26:05;;;;;;;3.75;1.60;;;14.10;85.30;;;;;;5092326;28;20406;-82
2021/08/24 01:28:55;;;;;;;4.63;1.90;;;14.10;85.20;;;;;;5093575;28;20470;-82
2021/08/24 01:31:36;;;;;;;3.40;1.77;;;14.00;85.30;;;;;;5093346;28;20731;-82
2021/08/24 01:34:26;;;;;;;3.15;1.80;;;14.10;85.20;;;;;;5084501;28;20403;-82
2021/08/24 01:37:02;;;;;;;2.93;1.80;;;14.00;85.20;;;;;;5054916;28;20405;-82
2021/08/24 01:39:36;;;;;;;4.18;1.85;;;13.90;85.20;;;;;;5073048;28;20861;-82
2021/08/24 01:42:21;;;;;;;5.82;2.00;;;13.90;85.40;;;;;;5073083;28;20434;-82
2021/08/24 01:44:53;;;;;;;2.58;1.80;;;13.90;85.30;;;;;;5080719;28;20442;-84
2021/08/24 01:47:33;;;;;;;4.05;1.98;;;13.90;85.20;;;;;;5093078;28;20509;-81
2021/08/24 01:50:08;;;;;;;4.43;1.70;;;13.80;85.30;;;;;;5093209;28;21065;-81
2021/08/24 01:52:39;;;;;;;5.50;1.88;;;13.80;85.30;;;;;;5088420;28;20728;-82
2021/08/24 01:55:13;;;;;;;2.67;1.87;;;13.80;85.40;;;;;;5083332;28;20390;-84
2021/08/24 01:57:48;;;;;;;6.78;1.80;;;13.70;85.50;;;;;;5054675;28;20384;-82
2021/08/24 02:00:15;;;;;;;3.93;1.80;;;13.80;85.40;;;;;;5075765;28;20386;-82
2021/08/24 02:02:55;;;;;;;5.90;1.73;;;13.80;85.10;;;;;;5092879;28;20768;-81
2021/08/24 02:05:26;;;;;;;4.60;1.75;;;13.70;85.20;;;;;;5093203;28;20419;-81
2021/08/24 02:08:00;;;;;;;4.60;1.83;;;13.60;85.30;;;;;;5074648;28;20412;-81
2021/08/24 02:10:26;;;;;;;4.22;2.05;;;13.60;85.30;;;;;;5092847;28;20405;-82
2021/08/24 02:12:54;;;;;;;3.67;1.80;;;13.60;85.40;;;;;;5092754;28;20405;-83
2021/08/24 02:15:31;;;;;;;5.75;2.13;;;13.50;85.30;;;;;;5071490;28;20413;-81
2021/08/24 02:17:59;;;;;;;4.78;1.88;;;13.50;85.40;;;;;;5087925;28;20394;-81
2021/08/24 02:20:35;;;;;;;6.50;1.83;;;13.50;85.30;;;;;;5092178;28;20874;-82
2021/08/24 02:23:09;;;;;;;8.48;2.20;;;13.40;85.40;;;;;;5087591;28;20378;-81
2021/08/24 02:25:41;;;;;;;5.53;2.00;;;13.40;85.50;;;;;;5082439;28;20649;-81
2021/08/24 02:28:13;;;;;;;3.30;1.90;;;13.40;85.60;;;;;;5074261;28;20920;-82
2021/08/24 02:30:44;;;;;;;4.03;1.80;;;13.40;85.40;;;;;;5082842;28;20386;-81
2021/08/24 02:33:11;;;;;;;3.72;1.70;;;13.40;85.40;;;;;;5077803;28;20382;-80
2021/08/24 02:35:48;;;;;;;5.05;1.83;;;13.30;85.50;;;;;;5086718;28;20378;-82
2021/08/24 02:38:21;;;;;;;3.83;1.88;;;13.40;85.50;;;;;;5082388;28;20394;-81
2021/08/24 02:41:02;;;;;;;2.92;1.80;;;13.30;85.50;;;;;;5073975;28;20943;-81
2021/08/24 02:43:48;;;;;;;4.35;2.13;;;13.30;85.70;;;;;;5073964;28;20469;-81
2021/08/24 02:46:22;;;;;;;4.90;2.00;;;13.10;85.60;;;;;;5074064;28;20879;-81
2021/08/24 02:48:51;;;;;;;4.13;1.90;;;13.10;85.60;;;;;;5091748;28;20882;-81
2021/08/24 02:51:19;;;;;;;4.38;2.10;;;13.20;85.60;;;;;;5091825;28;20400;-81
2021/08/24 02:53:52;;;;;;;5.53;1.70;;;13.10;85.70;;;;;;5092054;28;20401;-81
2021/08/24 02:56:18;;;;;;;4.65;2.10;;;13.20;85.70;;;;;;5073505;28;20399;-81
2021/08/24 02:58:43;;;;;;;6.70;2.07;;;13.10;85.70;;;;;;5091788;28;20851;-81
2021/08/24 03:01:09;;;;;;;2.90;2.00;;;13.10;85.80;;;;;;5090536;28;20386;-82
2021/08/24 03:03:34;;;;;;;3.00;1.80;;;13.10;85.70;;;;;;5090081;28;20735;-80
2021/08/24 03:06:00;;;;;;;4.10;1.90;;;13.00;85.70;;;;;;5091671;28;20405;-81
2021/08/24 03:08:26;;;;;;;4.03;1.90;;;13.00;85.80;;;;;;5090764;28;20425;-81
2021/08/24 03:10:52;;;;;;;4.32;1.98;;;12.90;85.80;;;;;;5090543;28;20925;-81
2021/08/24 03:13:32;;;;;;;4.88;2.13;;;12.90;85.90;;;;;;5090475;28;20442;-81
2021/08/24 03:16:09;;;;;;;3.83;1.92;;;12.90;85.80;;;;;;5090279;28;20406;-81
2021/08/24 03:18:42;;;;;;;6.50;2.27;;;12.80;86.10;;;;;;5090337;28;21013;-80
2021/08/24 03:21:12;;;;;;;3.67;1.83;;;12.90;85.80;;;;;;5090398;28;20855;-82
2021/08/24 03:23:42;;;;;;;4.37;2.60;;;12.90;85.90;;;;;;5091547;28;20446;-81
2021/08/24 03:26:07;;;;;;;6.05;2.10;;;12.80;85.90;;;;;;5090152;28;20406;-80
2021/08/24 03:28:33;;;;;;;4.30;2.25;;;12.80;86.10;;;;;;5091510;28;20382;-81
2021/08/24 03:30:58;;;;;;;4.88;2.13;;;12.80;86.10;;;;;;5091575;28;20370;-81
2021/08/24 03:33:24;;;;;;;5.57;2.07;;;12.80;86.10;;;;;;5091481;28;20396;-81
2021/08/24 03:35:50;;;;;;;3.83;2.30;;;12.70;86.00;;;;;;5079692;28;20386;-80
2021/08/24 03:38:16;;;;;;;5.65;2.10;;;12.70;86.10;;;;;;5073389;28;20480;-81
2021/08/24 03:40:42;;;;;;;4.45;2.47;;;12.70;86.00;;;;;;5073357;28;20383;-81
2021/08/24 03:43:07;;;;;;;3.53;2.00;;;12.60;86.10;;;;;;5091460;28;20431;-80
2021/08/24 03:45:33;;;;;;;4.78;2.13;;;12.70;86.10;;;;;;5091308;28;20477;-81
2021/08/24 03:47:59;;;;;;;4.43;1.92;;;12.70;86.10;;;;;;5091253;28;20414;-81
2021/08/24 03:50:25;;;;;;;3.08;1.83;;;12.70;85.90;;;;;;5091314;28;20374;-82
2021/08/24 03:52:50;;;;;;;4.80;2.17;;;12.60;86.20;;;;;;5091239;28;20374;-81
2021/08/24 03:55:17;;;;;;;3.38;2.30;;;12.60;86.30;;;;;;5073413;28;20599;-81
2021/08/24 03:57:43;;;;;;;4.28;2.17;;;12.60;86.20;;;;;;5091220;28;20392;-82
2021/08/24 04:00:10;;;;;;;4.70;1.85;;;12.60;86.10;;;;;;5091535;28;20406;-84
2021/08/24 04:02:35;;;;;;;3.50;2.23;;;12.60;86.10;;;;;;5091554;28;20472;-81
2021/08/24 04:05:02;;;;;;;8.40;2.43;;;12.60;86.10;;;;;;5088343;28;20382;-81
2021/08/24 04:07:29;;;;;;;6.77;2.17;;;12.50;86.20;;;;;;5091015;28;20459;-80
2021/08/24 04:09:55;;;;;;;5.03;2.22;;;12.50;86.30;;;;;;5091167;28;20374;-81
2021/08/24 04:12:21;;;;;;;4.55;2.35;;;12.40;86.50;;;;;;5091017;28;20378;-81
2021/08/24 04:14:47;;;;;;;5.55;2.33;;;12.40;86.50;;;;;;5085815;28;20736;-83
2021/08/24 04:17:12;;;;;;;5.20;2.00;;;12.40;86.40;;;;;;5085200;28;20405;-80
2021/08/24 04:19:38;;;;;;;6.80;2.15;;;12.40;86.50;;;;;;5094626;28;20384;-81
2021/08/24 04:22:09;;;;;;;4.00;2.03;;;12.30;86.60;;;;;;5093663;28;20378;-81
2021/08/24 04:24:35;;;;;;;4.57;1.80;;;12.30;86.40;;;;;;5093403;28;20475;-81
2021/08/24 04:27:02;;;;;;;3.40;2.05;;;12.40;86.50;;;;;;5093474;28;20872;-81
2021/08/24 04:29:27;;;;;;;3.83;2.37;;;12.40;86.30;;;;;;5094625;28;20383;-83
2021/08/24 04:31:53;;;;;;;3.03;2.00;;;12.30;86.50;;;;;;5093439;28;20390;-81
2021/08/24 04:34:18;;;;;;;3.67;2.00;;;12.30;86.50;;;;;;5093261;28;20805;-81
2021/08/24 04:36:44;;;;;;;5.03;2.40;;;12.30;86.50;;;;;;5094296;28;20389;-81
2021/08/24 04:39:09;;;;;;;3.43;2.37;;;12.30;86.50;;;;;;5084696;28;20482;-81
2021/08/24 04:41:35;;;;;;;4.10;2.50;;;12.30;86.50;;;;;;5094721;28;20386;-81
2021/08/24 04:44:01;;;;;;;8.13;2.47;;;12.30;86.50;;;;;;5094427;28;20405;-81
2021/08/24 04:46:26;;;;;;;6.03;2.28;;;12.30;86.40;;;;;;5094444;28;20406;-81
2021/08/24 04:48:52;;;;;;;6.47;2.40;;;12.30;86.50;;;;;;5093104;28;20382;-81
2021/08/24 04:51:18;;;;;;;3.80;2.40;;;12.20;86.50;;;;;;5093062;28;20459;-81
2021/08/24 04:53:43;;;;;;;7.37;2.47;;;12.30;86.40;;;;;;5093025;28;20452;-81
2021/08/24 04:56:09;;;;;;;14.77;3.10;;;12.30;86.50;;;;;;5094644;28;20382;-81
2021/08/24 04:58:34;;;;;;;7.07;2.20;;;12.30;86.30;;;;;;5093947;28;20378;-82
2021/08/24 05:01:00;;;;;;;4.57;2.40;;;12.30;86.40;;;;;;5092967;28;20425;-83
2021/08/24 05:03:25;;;;;;;7.50;3.10;;;12.30;86.50;;;;;;5093226;28;20397;-81
2021/08/24 05:05:51;;;;;;;4.50;2.23;;;12.30;86.60;;;;;;5092638;28;20387;-82
2021/08/24 05:08:17;;;;;;;5.97;2.70;;;12.30;86.60;;;;;;5092699;28;20467;-82
2021/08/24 05:10:42;;;;;;;5.00;2.40;;;12.30;86.70;;;;;;5093939;28;20735;-82
2021/08/24 05:13:08;;;;;;;4.17;2.50;;;12.30;86.80;;;;;;5093662;28;20504;-81
2021/08/24 05:15:33;;;;;;;7.13;3.00;;;12.30;86.80;;;;;;5093903;28;20476;-83
2021/08/24 05:18:00;;;;;;;5.97;2.77;;;12.30;87.00;;;;;;5093752;28;20377;-83
2021/08/24 05:20:25;;;;;;;7.05;2.95;;;12.30;86.90;;;;;;5092407;28;20477;-83
2021/08/24 05:22:51;;;;;;;4.70;2.90;;;12.30;87.10;;;;;;5093626;28;20406;-83
2021/08/24 05:25:20;;;;;;;6.22;2.55;;;12.40;87.20;;;;;;5077792;28;20390;-82
2021/08/24 05:27:46;;;;;;;7.15;2.90;;;12.40;87.20;;;;;;5083214;28;20459;-83
2021/08/24 05:30:14;;;;;;;5.35;2.90;;;12.50;87.00;;;;;;5088496;28;20477;-82
2021/08/24 05:32:40;;;;;;;6.57;2.67;;;12.50;87.00;;;;;;5093377;28;20374;-83
2021/08/24 05:35:06;;;;;;;9.50;3.38;;;12.60;87.00;;;;;;5093461;28;20384;-83
2021/08/24 05:37:32;;;;;;;9.43;3.10;;;12.60;86.90;;;;;;5093429;28;20370;-82
2021/08/24 05:39:57;;;;;;;6.13;3.23;;;12.60;87.30;;;;;;5093328;28;20374;-83
2021/08/24 05:42:23;;;;;;;5.57;3.08;;;12.60;87.40;;;;;;5117345;27;20472;-82
2021/08/24 05:44:48;;;;;;;4.80;3.10;;;12.60;87.20;;;;;;5091877;28;20443;-84
2021/08/24 05:47:14;;;;;;;5.63;3.33;;;12.70;87.20;;;;;;5089234;28;20402;-83
2021/08/24 05:49:40;;;;;;;5.70;3.20;;;12.70;87.30;;;;;;5084542;28;20405;-82
2021/08/24 05:52:08;;;;;;;6.77;3.10;;;12.70;87.40;;;;;;5093116;28;20859;-84
2021/08/24 05:54:35;;;;;;;6.25;3.50;;;12.70;87.50;;;;;;5091609;28;20882;-82
2021/08/24 05:57:00;;;;;;;5.75;3.60;;;12.70;87.50;;;;;;5092567;28;20912;-82
2021/08/24 05:59:27;;;;;;;7.60;4.77;;;12.80;87.60;;;;;;5092510;28;20473;-82
2021/08/24 06:01:52;;;;;;;11.45;6.35;;;12.70;88.10;;;;;;5092849;28;20390;-82
2021/08/24 06:04:18;;;;;;;13.00;5.78;;;12.70;89.20;;;;;;5092750;28;20375;-83
2021/08/24 06:06:44;;;;;;;12.80;7.20;;;12.70;89.50;;;;;;5092830;28;20409;-82
2021/08/24 06:09:12;;;;;;;15.32;6.03;;;12.80;89.60;;;;;;5092794;28;20378;-84
2021/08/24 06:11:47;;;;;;;11.32;5.72;;;12.90;88.90;;;;;;5092747;28;20410;-82
2021/08/24 06:14:14;;;;;;;12.68;6.10;;;12.90;88.40;;;;;;5074537;28;20386;-82
2021/08/24 06:16:40;;;;;;;11.87;7.20;;;12.90;88.50;;;;;;5074325;28;20440;-83
2021/08/24 06:19:07;;;;;;;12.18;6.60;;;12.90;89.20;;;;;;5072965;28;20398;-82
2021/08/24 06:21:34;;;;;;;15.23;7.72;;;12.90;89.50;;;;;;5092632;28;20786;-83
2021/08/24 06:24:00;;;;;;;13.30;7.65;;;12.90;90.20;;;;;;5092065;28;20432;-82
2021/08/24 06:26:26;;;;;;;16.52;7.10;;;12.90;90.20;;;;;;5091448;28;20749;-81
2021/08/24 06:28:52;;;;;;;14.52;8.20;;;13.00;89.80;;;;;;5092402;28;20386;-81
2021/08/24 06:31:24;;;;;;;12.40;7.73;;;13.00;90.50;;;;;;5092329;28;20419;-81
2021/08/24 06:33:50;;;;;;;16.40;9.60;;;13.00;90.20;;;;;;5108023;28;20404;-80
2021/08/24 06:36:16;;;;;;;16.73;9.75;;;13.00;90.40;;;;;;5074042;28;20394;-80
2021/08/24 06:38:43;;;;;;;15.45;9.48;;;13.10;90.50;;;;;;5091480;28;20389;-81
2021/08/24 06:41:09;;;;;;;17.65;9.63;;;13.10;90.60;;;;;;5074005;28;20405;-82
2021/08/24 06:43:35;;;;;;;15.43;9.05;;;13.20;90.20;;;;;;5092146;28;20957;-84
2021/08/24 06:46:01;;;;;;;18.05;7.85;;;13.20;90.50;;;;;;5091705;28;20374;-81
2021/08/24 06:48:26;;;;;;;14.80;7.40;;;13.20;90.20;;;;;;5092151;28;20382;-81
2021/08/24 06:50:52;;;;;;;13.43;7.27;;;13.30;89.80;;;;;;5091794;28;20379;-83
2021/08/24 06:53:18;;;;;;;16.50;7.70;;;13.30;89.90;;;;;;5092401;28;20401;-81
2021/08/24 06:55:44;;;;;;;13.40;7.80;;;13.30;89.60;;;;;;5092102;28;20374;-81
2021/08/24 06:58:11;;;;;;;15.45;7.47;;;13.40;89.50;;;;;;5091996;28;20733;-81
2021/08/24 07:00:39;;;;;;;14.90;7.80;;;13.40;89.20;;;;;;5091689;28;20803;-82
2021/08/24 07:03:05;;;;;;;12.38;6.88;;;13.40;89.00;;;;;;5107676;28;20401;-81
2021/08/24 07:05:32;;;;;;;13.48;7.32;;;13.60;88.80;;;;;;5073739;28;20386;-81
2021/08/24 07:07:58;;;;;;;15.30;6.97;;;13.50;88.90;;;;;;5107396;28;20459;-81
2021/08/24 07:10:25;;;;;;;12.18;7.53;;;13.60;88.90;;;;;;5073852;28;20390;-82
2021/08/24 07:12:50;;;;;;;13.90;6.65;;;13.80;89.10;;;;;;5073696;28;20378;-80
2021/08/24 07:15:19;;;;;;;11.53;6.30;;;13.70;88.60;;;;;;5091589;28;20439;-81
2021/08/24 07:17:47;;;;;;;11.02;6.68;;;13.80;87.70;;;;;;5107483;28;20440;-82
2021/08/24 07:20:15;;;;;;;13.75;6.50;;;13.80;87.70;;;;;;5091688;28;20379;-83
2021/08/24 07:22:41;;;;;;;8.30;5.93;;;13.80;87.40;;;;;;5091720;28;20402;-81
2021/08/24 07:25:11;;;;;;;11.93;6.13;;;13.90;87.50;;;;;;5073598;28;20393;-81
2021/08/24 07:27:36;;;;;;;11.27;6.32;;;13.90;87.60;;;;;;5073287;28;20421;-81
2021/08/24 07:30:03;;;;;;;15.20;5.55;;;13.90;87.10;;;;;;5073433;28;20390;-82
2021/08/24 07:32:29;;;;;;;10.50;5.50;;;14.00;86.50;;;;;;5107204;28;20804;-81
2021/08/24 07:34:54;;;;;;;10.57;5.63;;;14.10;86.30;;;;;;5107265;28;20461;-83
2021/08/24 07:37:20;;;;;;;7.83;4.63;;;14.10;85.90;;;;;;5107123;28;20393;-82
2021/08/24 07:39:45;;;;;;;11.55;5.05;;;14.20;84.70;;;;;;5091478;28;20389;-82
2021/08/24 07:42:11;;;;;;;11.23;5.10;;;14.20;84.70;;;;;;5091167;28;20386;-83
2021/08/24 07:44:36;;;;;;;8.73;4.90;;;14.20;84.10;;;;;;5091107;28;20386;-84
2021/08/24 07:47:07;;;;;;;10.47;5.43;;;14.30;84.10;;;;;;5091331;28;20886;-82
2021/08/24 07:49:37;;;;;;;11.30;5.20;;;14.30;84.20;;;;;;5093734;28;20469;-82
2021/08/24 07:52:05;;;;;;;9.05;5.13;;;14.40;84.20;;;;;;5095678;28;20374;-83
2021/08/24 07:54:31;;;;;;;10.23;5.05;;;14.50;83.00;;;;;;5095395;28;20396;-84
2021/08/24 07:56:56;;;;;;;10.25;4.47;;;14.60;82.60;;;;;;5111092;28;21138;-84
2021/08/24 07:59:22;;;;;;;10.48;4.63;;;14.60;82.60;;;;;;5077094;28;20394;-84
2021/08/24 08:01:48;;;;;;;8.50;4.47;;;14.80;82.50;;;;;;5094988;28;20378;-84
2021/08/24 08:04:14;;;;;;;7.50;3.70;;;14.70;82.60;;;;;;5110807;28;20386;-83
2021/08/24 08:06:39;;;;;;;7.95;4.18;;;14.80;81.40;;;;;;5095319;28;20930;-85
2021/08/24 08:09:06;;;;;;;8.20;3.87;;;14.80;80.80;;;;;;5095199;28;20428;-84
2021/08/24 08:11:35;;;;;;;7.30;4.07;;;14.90;81.40;;;;;;5076863;28;20385;-84
2021/08/24 08:14:01;;;;;;;8.45;3.65;;;14.80;81.70;;;;;;5095051;28;20481;-83
2021/08/24 08:16:27;;;;;;;5.38;3.33;;;15.00;79.90;;;;;;5095119;28;20926;-85
2021/08/24 08:18:52;;;;;;;6.90;3.65;;;15.00;80.20;;;;;;5076723;28;20390;-83
2021/08/24 08:21:19;;;;;;;12.02;4.75;;;15.00;81.20;;;;;;5094802;28;20381;-83
2021/08/24 08:23:45;;;;;;;7.63;3.72;;;15.10;80.60;;;;;;5076773;28;20408;-84
2021/08/24 08:26:11;;;;;;;9.18;3.67;;;15.20;81.10;;;;;;5076628;28;20886;-83
2021/08/24 08:28:37;;;;;;;6.72;3.13;;;15.50;80.50;;;;;;5076611;28;20382;-83
2021/08/24 08:31:03;;;;;;;7.45;2.60;;;15.60;77.80;;;;;;5110486;28;20394;-82
2021/08/24 08:33:30;;;;;;;4.88;2.47;;;15.70;77.10;;;;;;5094723;28;20429;-84
2021/08/24 08:35:56;;;;;;;4.35;2.00;;;15.80;75.30;;;;;;5094681;28;20734;-86
2021/08/24 08:38:23;;;;;;;5.35;2.25;;;15.70;75.10;;;;;;5076098;28;20465;-86
2021/08/24 08:41:39;;;;;;;3.60;2.10;;;15.80;73.60;;;;;;5094545;28;20460;-83
2021/08/24 08:44:28;;;;;;;5.00;1.87;;;15.70;76.70;;;;;;5094750;28;20493;-84
2021/08/24 08:47:06;;;;;;;3.78;1.85;;;15.80;73.80;;;;;;5110191;28;20459;-85
2021/08/24 08:49:58;;;;;;;5.60;1.92;;;16.00;75.10;;;;;;5110215;28;20447;-86
2021/08/24 08:53:07;;;;;;;9.45;2.35;;;16.20;72.20;;;;;;5076542;28;20846;-89
2021/08/24 08:55:56;;;;;;;6.30;1.70;;;16.30;69.30;;;;;;5072074;28;20434;-89
2021/08/24 08:58:49;;;;;;;3.35;1.70;;;16.50;69.10;;;;;;5110309;28;20426;-86
2021/08/24 09:01:28;;;;;;;3.95;1.70;;;16.40;69.20;;;;;;5109303;28;20442;-87
2021/08/24 09:04:37;;;;;;;2.67;1.55;;;16.40;71.30;;;;;;5094650;28;20382;-87
2021/08/24 09:07:18;;;;;;;5.72;1.95;;;16.50;70.70;;;;;;5084702;28;20939;-88
2021/08/24 09:09:44;;;;;;;5.07;1.63;;;16.50;70.60;;;;;;5075992;28;20739;-86
2021/08/24 09:12:11;;;;;;;3.33;2.00;;;16.60;70.30;;;;;;5094175;28;20381;-88
2021/08/24 09:14:50;;;;;;;4.38;1.92;;;16.90;70.00;;;;;;5093994;28;20486;-87
2021/08/24 09:17:31;;;;;;;9.23;4.57;;;17.10;69.60;;;;;;5075816;28;20428;-87
2021/08/24 09:20:31;;;;;;;5.57;2.20;;;17.10;69.80;;;;;;5094162;28;20390;-86
2021/08/24 09:22:57;;;;;;;4.30;1.70;;;17.20;67.90;;;;;;5058671;28;20476;-87
2021/08/24 09:25:36;;;;;;;3.10;1.80;;;17.00;69.10;;;;;;5075767;28;20382;-86
2021/08/24 09:28:29;;;;;;;4.85;2.08;;;17.10;69.60;;;;;;5094130;28;20398;-87
2021/08/24 09:30:55;;;;;;;6.35;1.90;;;17.30;70.50;;;;;;5094041;28;20389;-88
2021/08/24 09:33:22;;;;;;;4.95;2.08;;;17.30;64.60;;;;;;5075941;28;20397;-87
2021/08/24 09:35:49;;;;;;;5.90;2.13;;;17.30;66.30;;;;;;5093838;28;20692;-88
2021/08/24 09:38:29;;;;;;;5.85;2.05;;;17.40;62.40;;;;;;5075611;28;20439;-87
2021/08/24 09:40:57;;;;;;;6.95;2.45;;;17.50;66.90;;;;;;5109623;28;20477;-90
2021/08/24 09:43:36;;;;;;;8.70;1.90;;;17.40;64.30;;;;;;5075654;28;20885;-85
2021/08/24 09:46:27;;;;;;;4.00;2.30;;;17.30;67.10;;;;;;5093327;28;20481;-88
2021/08/24 09:49:00;;;;;;;6.13;2.10;;;17.50;65.90;;;;;;5061470;28;20415;-87
2021/08/24 09:51:42;;;;;;;9.88;2.22;;;17.60;62.00;;;;;;5093505;28;20382;-88
2021/08/24 09:54:15;;;;;;;4.05;2.33;;;17.40;63.80;;;;;;5075753;28;20762;-89
2021/08/24 09:56:50;;;;;;;6.03;2.00;;;17.60;63.00;;;;;;5075653;28;20409;-89
2021/08/24 09:59:27;;;;;;;4.93;2.00;;;17.70;62.20;;;;;;5075845;28;20390;-88
2021/08/24 10:01:52;;;;;;;4.65;1.95;;;17.80;62.30;;;;;;5075241;28;20382;-83
2021/08/24 10:04:18;;;;;;;5.47;2.20;;;17.80;59.50;;;;;;5093376;28;20407;-87
2021/08/24 10:07:06;;;;;;;5.87;2.10;;;17.80;61.00;;;;;;5093171;28;20489;-89
2021/08/24 10:09:39;;;;;;;5.05;2.03;;;18.00;58.40;;;;;;5075246;28;20871;-88
2021/08/24 10:12:20;;;;;;;6.32;2.20;;;18.10;61.10;;;;;;5093422;28;20378;-88
2021/08/24 10:14:47;;;;;;;8.63;2.47;;;18.20;65.40;;;;;;5093002;28;20485;-89
2021/08/24 10:17:28;;;;;;;5.05;2.15;;;18.20;63.40;;;;;;5093120;28;20917;-89
2021/08/24 10:19:56;;;;;;;8.20;2.78;;;18.00;60.30;;;;;;5074854;28;20382;-86
2021/08/24 10:22:33;;;;;;;6.60;2.72;;;18.20;62.10;;;;;;5108873;28;20465;-85
2021/08/24 10:25:10;;;;;;;5.73;1.97;;;18.10;61.70;;;;;;5093002;28;20381;-87
2021/08/24 10:27:38;;;;;;;5.35;2.40;;;18.30;63.00;;;;;;5074593;28;20409;-87
2021/08/24 10:30:09;;;;;;;5.57;2.13;;;18.50;60.50;;;;;;5092812;28;20386;-88
2021/08/24 10:32:40;;;;;;;8.20;2.70;;;18.40;61.50;;;;;;5092799;28;20477;-89
2021/08/24 10:35:22;;;;;;;3.78;2.08;;;18.60;60.80;;;;;;5092941;28;20408;-87
2021/08/24 10:37:49;;;;;;;6.50;2.30;;;18.60;58.80;;;;;;5092865;28;20487;-88
2021/08/24 10:40:25;;;;;;;10.15;2.42;;;18.50;59.40;;;;;;5092668;28;20469;-88
2021/08/24 10:43:15;;;;;;;3.72;2.08;;;18.60;59.70;;;;;;5108663;28;20382;-87
2021/08/24 10:46:13;;;;;;;7.50;2.40;;;18.60;61.30;;;;;;5074666;28;20390;-88
2021/08/24 10:48:39;;;;;;;6.82;2.65;;;18.80;60.20;;;;;;5092593;28;20396;-88
2021/08/24 10:51:52;;;;;;;4.85;2.17;;;18.90;62.60;;;;;;5108341;28;20931;-88
2021/08/24 10:54:29;;;;;;;13.07;2.10;;;19.00;59.60;;;;;;5084770;28;20468;-88
2021/08/24 10:57:37;;;;;;;5.43;1.90;;;18.80;59.30;;;;;;5108584;28;20871;-88
2021/08/24 11:00:12;;;;;;;4.32;2.05;;;18.90;60.30;;;;;;5074513;28;20384;-87
2021/08/24 11:02:44;;;;;;;3.70;1.70;;;19.10;61.90;;;;;;5108273;28;20400;-85
2021/08/24 11:05:33;;;;;;;4.13;1.70;;;18.90;57.00;;;;;;5092539;28;20378;-88
2021/08/24 11:08:11;;;;;;;3.45;1.90;;;18.70;57.30;;;;;;5108191;28;20992;-86
2021/08/24 11:10:47;;;;;;;3.60;1.73;;;18.60;58.30;;;;;;5074011;28;20387;-89
2021/08/24 11:13:21;;;;;;;3.15;1.67;;;18.90;59.40;;;;;;5074277;28;20938;-88
2021/08/24 11:16:07;;;;;;;6.47;1.87;;;18.90;57.90;;;;;;5108033;28;20401;-88
2021/08/24 11:18:48;;;;;;;3.03;1.58;;;18.80;55.70;;;;;;5108043;28;20389;-90
2021/08/24 11:21:34;;;;;;;4.03;1.87;;;18.80;57.50;;;;;;5092187;28;20720;-89
2021/08/24 11:24:18;;;;;;;4.43;1.67;;;18.90;59.60;;;;;;5073669;28;20390;-86
2021/08/24 11:27:10;;;;;;;5.95;2.03;;;18.90;57.20;;;;;;5092283;28;20399;-87
2021/08/24 11:29:48;;;;;;;3.25;1.88;;;19.10;58.40;;;;;;5092099;28;20394;-89
2021/08/24 11:32:24;;;;;;;3.85;1.67;;;19.10;56.80;;;;;;5073750;28;20731;-86
2021/08/24 11:35:34;;;;;;;4.15;1.90;;;18.90;59.00;;;;;;5091981;28;20469;-87
2021/08/24 11:38:04;;;;;;;5.82;2.05;;;19.30;60.70;;;;;;5082708;28;20389;-87
2021/08/24 11:40:34;;;;;;;4.00;2.08;;;19.40;58.30;;;;;;5074028;28;20382;-87
2021/08/24 11:43:02;;;;;;;4.18;1.83;;;19.50;57.20;;;;;;5107190;28;20391;-86
2021/08/24 11:45:48;;;;;;;8.55;2.05;;;19.70;59.00;;;;;;5091859;28;20402;-84
2021/08/24 11:48:23;;;;;;;5.53;1.70;;;19.40;56.70;;;;;;5091610;28;20397;-85
2021/08/24 11:51:07;;;;;;;3.17;1.58;;;19.40;58.10;;;;;;5091645;28;20386;-87
2021/08/24 11:53:45;;;;;;;9.80;2.90;;;19.40;56.80;;;;;;5107613;28;20765;-86
2021/08/24 11:56:39;;;;;;;4.85;1.65;;;19.50;55.10;;;;;;5091188;28;20875;-84
2021/08/24 11:59:12;;;;;;;6.03;2.00;;;19.60;58.80;;;;;;5042485;28;20402;-84
2021/08/24 12:01:38;;;;;;;8.50;1.77;;;19.70;58.50;;;;;;5073043;28;20412;-85
2021/08/24 12:04:05;;;;;;;8.63;1.90;;;19.60;57.00;;;;;;5106993;28;20426;-84
2021/08/24 12:06:56;;;;;;;3.97;2.05;;;19.80;57.60;;;;;;5091395;28;20451;-86
2021/08/24 12:09:46;;;;;;;3.97;1.80;;;19.80;55.70;;;;;;5091770;28;20840;-86
2021/08/24 12:12:38;;;;;;;3.40;1.80;;;20.00;61.90;;;;;;5091507;28;20726;-86
2021/08/24 12:15:27;;;;;;;3.65;1.58;;;20.00;55.70;;;;;;5076577;28;20402;-89
2021/08/24 12:18:07;;;;;;;4.68;2.30;;;20.10;53.60;;;;;;5091366;28;20386;-85
2021/08/24 12:20:44;;;;;;;6.93;1.90;;;20.20;54.30;;;;;;5091170;28;20378;-86
2021/08/24 12:23:37;;;;;;;6.00;1.80;;;20.10;54.90;;;;;;5073106;28;20458;-86
2021/08/24 12:26:32;;;;;;;5.23;1.90;;;20.20;58.10;;;;;;5073077;28;20386;-85
2021/08/24 12:29:10;;;;;;;4.10;2.00;;;20.40;54.70;;;;;;5091202;28;20386;-85
2021/08/24 12:31:44;;;;;;;5.28;1.55;;;20.40;54.30;;;;;;5073128;28;20776;-85
2021/08/24 12:34:34;;;;;;;7.00;2.00;;;20.10;53.10;;;;;;5091371;28;20908;-84
2021/08/24 12:37:18;;;;;;;5.72;2.13;;;20.30;54.80;;;;;;5109638;28;20450;-85
2021/08/24 12:39:45;;;;;;;6.78;1.90;;;20.10;53.30;;;;;;5094718;28;20387;-85
2021/08/24 12:42:28;;;;;;;3.97;1.90;;;19.90;55.10;;;;;;5094772;28;20850;-88
2021/08/24 12:44:57;;;;;;;4.22;2.08;;;20.00;52.70;;;;;;5095033;28;20438;-85
2021/08/24 12:47:30;;;;;;;9.02;4.53;;;20.20;56.90;;;;;;5110258;28;20882;-84
2021/08/24 12:50:08;;;;;;;4.50;2.00;;;20.00;53.80;;;;;;5094852;28;20414;-85
2021/08/24 12:52:43;;;;;;;7.43;1.98;;;19.90;55.30;;;;;;5094498;28;20382;-85
2021/08/24 12:55:32;;;;;;;2.95;1.60;;;19.90;56.50;;;;;;5094454;28;20885;-86
2021/08/24 12:58:23;;;;;;;4.45;2.00;;;19.90;57.60;;;;;;5094535;28;20390;-84
2021/08/24 13:01:22;;;;;;;5.38;1.58;;;19.80;56.10;;;;;;5094578;28;20843;-86
2021/08/24 13:04:22;;;;;;;4.95;1.60;;;19.90;57.00;;;;;;5094441;28;20434;-86
2021/08/24 13:07:13;;;;;;;3.60;1.80;;;20.20;54.50;;;;;;5094285;28;20899;-85
2021/08/24 13:09:41;;;;;;;5.07;1.83;;;20.40;56.70;;;;;;5076387;28;20524;-86
2021/08/24 13:12:06;;;;;;;5.97;2.40;;;20.60;54.30;;;;;;5110063;28;20381;-84